Ellipsis — WDE4581 — position and weather

sailwx.info

Track history (hours):
 
Tides and Currents Weather Stations Pressure Air Temp Water Temp Dewpoint Dewpoint Depression Visibility Wind Speed Wind Dir Waves Ship Positions

Ellipsis

Owner: Gulledge, Carl L, Redmond, WA. More information available from US FCC via Universal Licensing System and Coast Guard Vessel Documentation Center.

Last reported at 2015-Jun-05 20:04 UTC. Time now 2015-Jul-05 19:23 UTC.
Position N 55°23' W 131°45'.
Warning: this ship's position is 29 days out of date.

Length 19 m.

Type: Pleasure craft. MMSI: 367355160.

Date/timePositionNaut miles runAvg speedWind from/ knotsBaromVisibWave heightAir tempDewpointWater temp
2015-Jun-05 20:04N 55°23' W 131°45'3 5.9
2015-Jun-05 19:32N 55°21' W 131°41'0 0.0
2015-Jun-05 18:32N 55°21' W 131°41'0 0.0
2015-Jun-05 17:32N 55°21' W 131°41'0 0.0
2015-Jun-05 16:32N 55°21' W 131°41'0 0.0
2015-Jun-05 15:32N 55°21' W 131°41'0 0.0
2015-Jun-05 14:32N 55°21' W 131°41'0 0.0
2015-Jun-05 13:32N 55°21' W 131°41'0 0.0
2015-Jun-05 12:31N 55°21' W 131°41'0 0.0
2015-Jun-05 11:28N 55°21' W 131°41'0 0.0
2015-Jun-05 10:28N 55°21' W 131°41'0 0.0
2015-Jun-05 09:31N 55°21' W 131°41'0 0.0
2015-Jun-05 08:31N 55°21' W 131°41'0 0.0
2015-Jun-05 07:31N 55°21' W 131°41'0 0.0
2015-Jun-05 06:31N 55°21' W 131°41'0 0.0
2015-Jun-05 05:31N 55°21' W 131°41'0 0.0
2015-Jun-05 04:31N 55°21' W 131°41'0 0.0
2015-Jun-05 03:31N 55°21' W 131°41'0 0.0
2015-Jun-05 02:31N 55°21' W 131°41'0 0.0
2015-Jun-05 01:31N 55°21' W 131°41'0 0.0
2015-Jun-05 00:31N 55°21' W 131°41'0 0.0
2015-Jun-04 23:28N 55°21' W 131°41'0 0.0
2015-Jun-04 22:28N 55°21' W 131°41'0 0.0
2015-Jun-04 21:31N 55°21' W 131°41'0 0.0
2015-Jun-04 20:31N 55°21' W 131°41'0 0.0
2015-Jun-04 19:31N 55°21' W 131°41'0 0.0
2015-Jun-04 18:31N 55°21' W 131°41'0 0.0
2015-Jun-04 17:31N 55°21' W 131°41'0 0.0
2015-Jun-04 16:31N 55°21' W 131°41'0 0.0
2015-Jun-04 15:31N 55°21' W 131°41'0 0.0
2015-Jun-04 14:31N 55°21' W 131°41'0 0.0
2015-Jun-04 13:31N 55°21' W 131°41'0 0.0
2015-Jun-04 12:33N 55°21' W 131°41'0 0.0
2015-Jun-04 11:33N 55°21' W 131°41'0 0.0
2015-Jun-04 10:33N 55°21' W 131°41'0 0.0
2015-Jun-04 09:33N 55°21' W 131°41'0 0.0
2015-Jun-04 08:33N 55°21' W 131°41'0 0.0
2015-Jun-04 07:33N 55°21' W 131°41'0 0.0
2015-Jun-04 06:33N 55°21' W 131°41'0 0.0
2015-Jun-04 05:33N 55°21' W 131°41'0 0.0
2015-Jun-04 04:33N 55°21' W 131°41'0 0.0
2015-Jun-04 03:33N 55°21' W 131°41'0 0.0
2015-Jun-04 02:33N 55°21' W 131°41'0 0.0
2015-Jun-04 01:33N 55°21' W 131°41'0 0.0
2015-Jun-04 00:33N 55°21' W 131°41'0 0.0
2015-Jun-03 23:33N 55°21' W 131°41'0 0.0
2015-Jun-03 22:33N 55°21' W 131°41'0 0.0
2015-Jun-03 21:33N 55°21' W 131°41'  
2015-May-30 15:09N 52°17' W 128°28'5 8.6
2015-May-30 14:33N 52°15' W 128°21'  
2015-May-27 13:32N 51°00' W 127°45'8 7.8
2015-May-27 12:33N 50°54' W 127°39'4 3.8
2015-May-27 11:32N 50°50' W 127°36'0 0.0
2015-May-27 10:32N 50°50' W 127°36'0 0.0
2015-May-27 09:32N 50°50' W 127°36'0 0.0
2015-May-27 08:32N 50°50' W 127°36'0 0.0
2015-May-27 07:32N 50°50' W 127°36'0 0.0
2015-May-27 06:32N 50°50' W 127°36'0 0.0
2015-May-27 05:32N 50°50' W 127°36'0 0.0
2015-May-27 04:32N 50°50' W 127°36'0 0.0
2015-May-27 03:32N 50°50' W 127°36'0 0.0
2015-May-27 02:26N 50°50' W 127°36'0 0.0
2015-May-27 01:32N 50°50' W 127°36'2 2.5
2015-May-27 00:32N 50°49' W 127°32'  
Track history (hours):
 
Tides and Currents Weather Stations Pressure Air Temp Water Temp Dewpoint Dewpoint Depression Visibility Wind Speed Wind Dir Waves Ship Positions

Ellipsis

Owner: Gulledge, Carl L, Redmond, WA. More information available from US FCC via Universal Licensing System and Coast Guard Vessel Documentation Center.

Last reported at 2015-Jun-05 20:04 UTC. Time now 2015-Jul-05 19:23 UTC.
Position N 55°23' W 131°45'.
Warning: this ship's position is 29 days out of date.

Length 19 m.

Type: Pleasure craft. MMSI: 367355160.

Date/timePositionNaut miles runAvg speedWind from/ knotsBaromVisibWave heightAir tempDewpointWater temp
2015-Jun-05 20:04N 55°23' W 131°45'3 5.9
2015-Jun-05 19:32N 55°21' W 131°41'0 0.0
2015-Jun-05 18:32N 55°21' W 131°41'0 0.0
2015-Jun-05 17:32N 55°21' W 131°41'0 0.0
2015-Jun-05 16:32N 55°21' W 131°41'0 0.0
2015-Jun-05 15:32N 55°21' W 131°41'0 0.0
2015-Jun-05 14:32N 55°21' W 131°41'0 0.0
2015-Jun-05 13:32N 55°21' W 131°41'0 0.0
2015-Jun-05 12:31N 55°21' W 131°41'0 0.0
2015-Jun-05 11:28N 55°21' W 131°41'0 0.0
2015-Jun-05 10:28N 55°21' W 131°41'0 0.0
2015-Jun-05 09:31N 55°21' W 131°41'0 0.0
2015-Jun-05 08:31N 55°21' W 131°41'0 0.0
2015-Jun-05 07:31N 55°21' W 131°41'0 0.0
2015-Jun-05 06:31N 55°21' W 131°41'0 0.0
2015-Jun-05 05:31N 55°21' W 131°41'0 0.0
2015-Jun-05 04:31N 55°21' W 131°41'0 0.0
2015-Jun-05 03:31N 55°21' W 131°41'0 0.0
2015-Jun-05 02:31N 55°21' W 131°41'0 0.0
2015-Jun-05 01:31N 55°21' W 131°41'0 0.0
2015-Jun-05 00:31N 55°21' W 131°41'0 0.0
2015-Jun-04 23:28N 55°21' W 131°41'0 0.0
2015-Jun-04 22:28N 55°21' W 131°41'0 0.0
2015-Jun-04 21:31N 55°21' W 131°41'0 0.0
2015-Jun-04 20:31N 55°21' W 131°41'0 0.0
2015-Jun-04 19:31N 55°21' W 131°41'0 0.0
2015-Jun-04 18:31N 55°21' W 131°41'0 0.0
2015-Jun-04 17:31N 55°21' W 131°41'0 0.0
2015-Jun-04 16:31N 55°21' W 131°41'0 0.0
2015-Jun-04 15:31N 55°21' W 131°41'0 0.0
2015-Jun-04 14:31N 55°21' W 131°41'0 0.0
2015-Jun-04 13:31N 55°21' W 131°41'0 0.0
2015-Jun-04 12:33N 55°21' W 131°41'0 0.0
2015-Jun-04 11:33N 55°21' W 131°41'0 0.0
2015-Jun-04 10:33N 55°21' W 131°41'0 0.0
2015-Jun-04 09:33N 55°21' W 131°41'0 0.0
2015-Jun-04 08:33N 55°21' W 131°41'0 0.0
2015-Jun-04 07:33N 55°21' W 131°41'0 0.0
2015-Jun-04 06:33N 55°21' W 131°41'0 0.0
2015-Jun-04 05:33N 55°21' W 131°41'0 0.0
2015-Jun-04 04:33N 55°21' W 131°41'0 0.0
2015-Jun-04 03:33N 55°21' W 131°41'0 0.0
2015-Jun-04 02:33N 55°21' W 131°41'0 0.0
2015-Jun-04 01:33N 55°21' W 131°41'0 0.0
2015-Jun-04 00:33N 55°21' W 131°41'0 0.0
2015-Jun-03 23:33N 55°21' W 131°41'0 0.0
2015-Jun-03 22:33N 55°21' W 131°41'0 0.0
2015-Jun-03 21:33N 55°21' W 131°41'  
2015-May-30 15:09N 52°17' W 128°28'5 8.6
2015-May-30 14:33N 52°15' W 128°21'  
2015-May-27 13:32N 51°00' W 127°45'8 7.8
2015-May-27 12:33N 50°54' W 127°39'4 3.8
2015-May-27 11:32N 50°50' W 127°36'0 0.0
2015-May-27 10:32N 50°50' W 127°36'0 0.0
2015-May-27 09:32N 50°50' W 127°36'0 0.0
2015-May-27 08:32N 50°50' W 127°36'0 0.0
2015-May-27 07:32N 50°50' W 127°36'0 0.0
2015-May-27 06:32N 50°50' W 127°36'0 0.0
2015-May-27 05:32N 50°50' W 127°36'0 0.0
2015-May-27 04:32N 50°50' W 127°36'0 0.0
2015-May-27 03:32N 50°50' W 127°36'0 0.0
2015-May-27 02:26N 50°50' W 127°36'0 0.0
2015-May-27 01:32N 50°50' W 127°36'2 2.5
2015-May-27 00:32N 50°49' W 127°32'  

Dump ship's entire track history